Date,TemperatureHighF,TemperatureAvgF,TemperatureLowF,DewpointHighF,DewpointAvgF,DewpointLowF,HumidityHigh,HumidityAvg,HumidityLow,PressureMaxIn,PressureMinIn,WindSpeedMaxMPH,WindSpeedAvgMPH,GustSpeedMaxMPH,PrecipitationSumIn
2012-1-1,61,48,38,50,39,35,100,74,40,30.22,30.12,0,0,0,0.00
2012-1-2,46,42,39,38,36,34,88,78,70,30.19,30.13,0,0,0,0.00
2012-1-3,62,53,42,33,29,27,60,41,30,30.31,30.23,0,0,0,0.00
2012-1-4,63,51,40,35,32,29,71,51,31,30.38,30.25,0,0,0,0.00
2012-1-5,66,51,42,40,32,30,72,52,29,30.27,30.10,0,0,0,0.00
2012-1-6,62,48,38,40,34,30,79,60,38,30.15,30.06,0,0,0,0.00
2012-1-7,62,49,35,33,26,14,74,45,25,30.16,30.07,0,0,0,0.00
2012-1-8,61,48,38,35,31,21,74,53,35,30.22,30.13,0,0,0,0.00
2012-1-9,64,49,38,41,32,26,79,55,31,30.24,30.13,0,0,0,0.00
2012-1-10,62,48,38,34,27,23,68,45,26,30.15,30.05,0,0,0,0.00
2012-1-11,65,49,37,30,26,23,64,42,25,30.12,29.99,0,0,0,0.00
2012-1-12,60,48,37,31,25,21,67,42,27,30.12,30.02,0,0,0,0.00
2012-1-13,63,50,38,29,24,19,55,38,25,30.22,30.12,0,0,0,0.00
2012-1-14,66,49,38,28,23,18,53,37,23,30.18,30.04,0,0,0,0.00
2012-1-15,57,46,38,35,26,16,63,46,36,30.09,29.92,0,0,0,0.00
2012-1-16,47,38,28,27,14,7,67,38,27,30.30,30.09,0,0,0,0.00
2012-1-17,53,40,27,20,14,8,41,33,27,30.40,30.29,0,0,0,0.00
2012-1-18,56,44,35,22,16,11,41,33,25,30.39,30.23,0,0,0,0.00
2012-1-19,50,43,37,40,24,14,82,49,29,30.23,30.05,0,0,0,0.17
2012-1-20,56,51,46,56,49,32,100,94,56,30.05,29.67,0,0,0,1.70
2012-1-21,54,49,40,54,41,29,100,77,40,30.13,29.62,0,0,0,0.29
2012-1-22,51,45,39,44,36,30,87,71,50,30.15,29.83,0,0,0,0.25
2012-1-23,50,47,43,50,46,43,100,96,81,30.12,29.66,0,0,0,0.91
2012-1-24,55,47,40,50,42,38,100,83,55,30.40,30.12,0,0,0,0.00
2012-1-25,60,50,42,48,42,40,100,77,49,30.43,30.30,0,0,0,0.00
2012-1-26,58,52,46,54,50,43,100,91,81,30.31,30.19,0,0,0,0.00
2012-1-27,61,50,42,51,38,27,100,67,29,30.26,30.14,0,0,0,0.00
2012-1-28,62,49,37,41,37,31,86,65,45,30.34,30.23,0,0,0,0.00
2012-1-29,65,52,41,42,34,27,88,55,29,30.27,30.09,0,0,0,0.00
2012-1-30,64,53,43,37,34,31,71,49,34,30.10,29.95,0,0,0,0.00
2012-1-31,60,49,38,44,38,33,98,68,41,30.15,30.01,0,0,0,0.00
2012-2-1,58,50,44,50,44,40,98,83,57,30.23,30.12,0,0,0,0.08
2012-2-2,56,47,37,42,36,30,88,67,47,30.18,29.95,0,0,0,0.00
2012-2-3,62,50,40,39,33,28,87,55,32,30.05,29.98,0,0,0,0.00
2012-2-4,67,53,39,32,27,23,57,38,24,30.08,30.02,0,0,0,0.00
2012-2-5,65,54,42,30,26,20,41,34,26,30.08,29.98,0,0,0,0.00
2012-2-6,70,56,42,30,26,20,41,31,23,29.98,29.75,0,0,0,0.00
2012-2-7,61,55,50,43,37,22,72,52,25,30.08,29.76,0,0,0,0.00
2012-2-8,64,53,44,42,39,37,81,60,38,30.21,30.08,0,0,0,0.00
2012-2-9,70,56,45,43,41,38,83,58,33,30.26,30.10,0,0,0,0.00
2012-2-10,68,56,46,50,42,37,76,62,36,30.16,30.03,0,0,0,0.00
2012-2-11,62,52,45,48,42,36,91,71,45,30.03,29.94,0,0,0,0.00
2012-2-12,60,50,42,49,42,34,100,76,44,30.02,29.93,0,0,0,0.17
2012-2-13,53,45,39,44,40,34,100,84,52,29.97,29.85,0,0,0,0.45
2012-2-14,56,47,39,43,37,33,96,69,46,30.05,29.93,0,0,0,0.00
2012-2-15,57,48,38,41,26,17,87,44,26,30.12,29.95,0,0,0,0.00
2012-2-16,64,52,43,26,21,15,44,29,23,30.22,30.12,0,0,0,0.00
2012-2-17,64,53,42,32,27,22,50,38,26,30.24,30.12,0,0,0,0.00
2012-2-18,59,50,40,45,38,29,86,65,49,30.15,30.03,0,0,0,0.00
2012-2-19,57,45,35,37,28,17,83,54,26,30.09,30.01,0,0,0,0.00
2012-2-20,58,50,42,38,33,28,71,53,36,30.16,30.06,0,0,0,0.00
2012-2-21,66,52,39,41,37,34,89,60,34,30.26,30.15,0,0,0,0.00
2012-2-22,68,57,45,44,38,32,78,52,32,30.25,30.02,0,0,0,0.00
2012-2-23,68,56,44,37,29,19,70,39,22,30.02,29.89,0,0,0,0.00
2012-2-24,73,58,44,41,33,21,59,40,26,30.09,29.95,0,0,0,0.00
2012-2-25,60,50,41,41,28,18,86,46,25,30.26,30.09,0,0,0,0.00
2012-2-26,58,46,32,26,21,15,54,38,26,30.13,29.81,0,0,0,0.00
2012-2-27,56,45,36,34,26,22,71,49,30,29.90,29.76,0,0,0,0.00
2012-2-28,56,46,36,32,28,23,71,50,35,30.18,29.90,0,0,0,0.00
2012-2-29,50,46,43,45,39,29,100,78,50,30.20,30.01,0,0,0,0.54
2012-3-1,50,45,40,45,40,36,98,83,73,30.21,30.13,0,0,0,0.29
2012-3-2,59,47,35,39,29,25,92,54,28,30.31,30.19,0,0,0,0.00
2012-3-3,67,54,39,37,33,27,70,46,29,30.33,30.21,0,0,0,0.00
2012-3-4,72,57,43,42,35,31,75,47,25,30.21,30.03,0,0,0,0.00
2012-3-5,74,60,47,41,35,30,59,40,25,30.04,29.89,0,0,0,0.00
2012-3-6,56,49,42,43,24,11,88,42,23,30.00,29.82,0,0,0,0.00
2012-3-7,61,49,37,23,15,8,33,26,21,30.16,29.99,0,0,0,0.00
2012-3-8,68,55,40,28,22,14,37,29,20,30.30,30.15,0,0,0,0.00
2012-3-9,74,57,42,33,26,22,49,32,21,30.30,30.06,0,0,0,0.00
2012-3-10,66,53,41,42,33,24,88,51,28,30.06,29.91,0,0,0,0.00
2012-3-11,60,51,45,42,38,31,88,61,46,30.03,29.95,0,0,0,0.00
2012-3-12,64,53,42,34,32,27,57,45,32,30.01,29.88,0,0,0,0.00
2012-3-13,54,52,50,49,43,34,89,71,50,29.97,29.85,0,0,0,0.37
2012-3-14,57,54,51,55,52,49,100,91,76,30.10,29.95,0,0,0,1.33
2012-3-15,63,57,55,56,53,51,99,86,67,30.12,30.01,0,0,0,0.04
2012-3-16,56,54,47,55,53,46,100,98,88,30.02,29.66,0,0,0,1.33
2012-3-17,51,44,38,46,37,29,98,77,45,29.69,29.46,0,0,0,0.33
2012-3-18,53,43,39,40,36,31,100,79,46,29.89,29.56,0,0,0,0.37
2012-3-19,55,46,34,34,29,24,81,54,34,30.05,29.89,0,0,0,0.00
2012-3-20,65,55,46,38,32,26,62,44,25,30.17,30.05,0,0,0,0.00
2012-3-21,71,60,46,46,40,34,68,50,32,30.13,29.92,0,0,0,0.00
2012-3-22,67,56,46,49,41,27,86,60,36,29.95,29.87,0,0,0,0.00
2012-3-23,63,52,39,34,30,26,71,45,25,30.07,29.84,0,0,0,0.00
2012-3-24,58,50,45,41,36,30,75,59,38,29.88,29.77,0,0,0,0.00
2012-3-25,59,50,42,43,39,35,100,69,45,29.84,29.73,0,0,0,0.41
2012-3-26,61,52,42,42,37,31,94,60,35,30.07,29.82,0,0,0,0.00
2012-3-27,60,52,47,48,39,33,92,63,37,30.01,29.88,0,0,0,0.75
2012-3-28,66,55,49,53,45,38,100,72,42,30.09,29.91,0,0,0,0.41
2012-3-29,53,48,45,44,42,40,88,80,70,30.10,30.05,0,0,0,0.00
2012-3-31,47,46,46,44,41,38,96,82,71,29.97,29.84,0,0,0,0.71
2012-4-1,60,52,43,48,34,22,98,57,25,30.21,29.97,0,0,0,0.00
2012-4-2,66,54,39,37,33,26,72,46,31,30.17,29.99,0,0,0,0.00
2012-4-3,70,57,46,51,39,34,98,54,28,30.05,29.93,0,0,0,0.16
2012-4-4,61,52,40,50,33,21,99,56,25,30.13,29.99,0,0,0,0.13
2012-4-5,59,47,34,36,26,18,81,47,25,30.12,30.02,0,0,0,0.00
2012-4-6,64,50,36,31,25,19,64,40,24,30.24,30.11,0,0,0,0.00
2012-4-7,72,56,38,34,29,22,61,37,23,30.13,29.99,0,0,0,0.00
2012-4-8,76,61,47,37,32,24,50,35,22,30.01,29.93,0,0,0,0.00
2012-4-9,73,60,46,36,33,29,63,38,22,29.96,29.77,0,0,0,0.00
2012-4-10,65,56,47,49,39,30,82,54,40,29.86,29.75,0,0,0,0.00
2012-4-11,58,51,49,50,44,39,100,79,54,29.97,29.75,0,0,0,0.83
2012-4-12,56,51,47,48,42,35,100,74,52,30.02,29.78,0,0,0,0.75
2012-4-13,59,48,43,47,42,37,100,83,44,29.80,29.64,0,0,0,0.91
2012-4-14,63,52,44,45,40,36,97,68,36,30.07,29.79,0,0,0,0.00
2012-4-15,70,58,44,45,42,39,88,59,34,30.17,30.07,0,0,0,0.00
2012-4-16,74,61,48,44,37,30,76,44,22,30.17,30.10,0,0,0,0.00
2012-4-17,76,61,47,47,41,36,72,50,31,30.12,30.00,0,0,0,0.00
2012-4-18,74,62,49,48,42,33,87,53,26,30.08,30.01,0,0,0,0.00
2012-4-19,78,66,51,53,47,41,87,53,31,30.08,29.98,0,0,0,0.00
2012-4-20,85,72,58,57,53,50,80,53,32,30.01,29.89,0,0,0,0.00
2012-4-21,89,76,63,55,51,47,67,43,23,29.91,29.79,0,0,0,0.00
2012-4-22,92,78,64,56,52,47,70,42,23,29.83,29.74,0,0,0,0.00
2012-4-23,74,63,54,54,49,44,91,61,37,29.97,29.79,0,0,0,0.00
2012-4-24,77,66,57,51,46,43,71,51,32,30.01,29.87,0,0,0,0.00
2012-4-25,69,61,56,57,53,47,98,74,53,29.96,29.73,0,0,0,0.37
2012-4-26,67,58,48,57,46,35,100,70,35,30.14,29.72,0,0,0,0.21
2012-4-27,70,57,44,43,36,30,86,50,24,30.16,30.05,0,0,0,0.00
2012-4-28,78,64,47,45,39,32,75,43,25,30.05,29.80,0,0,0,0.00
2012-4-29,83,70,53,53,47,43,82,48,27,29.85,29.79,0,0,0,0.00
2012-4-30,85,72,60,51,46,41,65,44,23,29.90,29.78,0,0,0,0.00
2012-5-1,77,63,51,47,43,36,82,50,25,29.84,29.78,0,0,0,0.00
2012-5-2,74,60,47,44,39,34,72,49,28,29.90,29.81,0,0,0,0.00
2012-5-3,66,58,49,48,42,36,76,57,44,30.04,29.88,0,0,0,0.00
2012-5-4,70,61,53,51,42,34,89,55,28,30.13,30.03,0,0,0,0.00
2012-5-5,74,62,48,40,34,27,70,38,21,30.13,29.95,0,0,0,0.00
2012-5-6,83,71,56,37,31,21,39,23,19,29.99,29.91,0,0,0,0.00
2012-5-7,87,74,55,39,31,21,30,21,11,29.96,29.85,0,0,0,0.00
2012-5-8,94,76,56,42,32,22,34,21,14,29.90,29.82,0,0,0,0.00
2012-5-9,92,78,61,42,36,27,43,24,17,29.88,29.77,0,0,0,0.00
2012-5-10,83,69,55,45,38,30,62,34,19,29.84,29.76,0,0,0,0.00
2012-5-11,89,72,56,44,36,31,46,29,15,29.89,29.78,0,0,0,0.00
2012-5-12,90,75,59,41,38,34,42,27,17,29.97,29.88,0,0,0,0.00
2012-5-13,86,69,54,45,41,36,71,39,22,30.00,29.89,0,0,0,0.00
2012-5-14,76,64,52,46,41,35,75,48,26,30.05,29.95,0,0,0,0.00
2012-5-15,84,68,52,46,42,39,68,42,21,29.97,29.87,0,0,0,0.00
2012-5-16,88,72,52,48,44,37,75,41,21,29.95,29.81,0,0,0,0.00
2012-5-17,81,67,56,43,39,37,55,37,22,29.83,29.72,0,0,0,0.00
2012-5-18,82,67,51,48,38,28,72,39,16,29.87,29.80,0,0,0,0.00
2012-5-19,88,72,53,42,37,30,57,32,15,29.91,29.84,0,0,0,0.00
2012-5-20,92,76,59,44,39,34,47,29,17,29.90,29.81,0,0,0,0.00
2012-5-21,84,70,57,46,42,39,66,40,21,30.00,29.87,0,0,0,0.00
2012-5-22,84,71,56,53,45,37,86,45,20,30.02,29.91,0,0,0,0.00
2012-5-23,79,68,53,48,37,29,72,37,17,29.93,29.79,0,0,0,0.00
2012-5-24,81,66,51,40,36,32,57,36,17,29.81,29.56,0,0,0,0.00
2012-5-25,70,59,48,37,32,26,65,38,23,29.76,29.61,0,0,0,0.00
2012-5-26,74,60,49,50,38,32,71,46,26,30.02,29.75,0,0,0,0.00
2012-5-27,78,63,47,50,41,32,89,52,22,30.08,29.98,0,0,0,0.00
2012-5-28,80,65,50,47,39,34,75,43,21,30.00,29.92,0,0,0,0.00
2012-5-29,84,67,49,43,39,35,66,38,21,29.99,29.91,0,0,0,0.00
2012-5-30,89,73,54,48,42,35,67,37,18,30.00,29.90,0,0,0,0.00
2012-5-31,96,79,60,48,43,36,59,32,16,29.94,29.76,0,0,0,0.00
2012-6-1,99,84,68,51,46,40,47,28,16,29.76,29.63,0,0,0,0.00
2012-6-2,93,76,61,49,45,40,56,35,19,29.85,29.69,0,0,0,0.00
2012-6-3,93,74,57,44,40,36,53,32,17,29.85,29.75,0,0,0,0.00
2012-6-4,65,60,52,56,46,38,84,60,37,30.03,29.81,0,0,0,0.04
2012-6-5,71,61,48,43,36,28,80,44,23,30.12,30.01,0,0,0,0.00
2012-6-6,80,65,48,42,35,30,68,36,20,30.01,29.87,0,0,0,0.00
2012-6-7,88,71,52,45,39,34,59,34,18,29.93,29.85,0,0,0,0.00
2012-6-8,84,71,57,47,40,32,67,36,16,29.89,29.78,0,0,0,0.00
2012-6-9,81,67,52,42,33,22,61,31,17,29.91,29.76,0,0,0,0.00
2012-6-10,90,76,55,36,30,18,27,18,15,29.84,29.77,0,0,0,0.00
2012-6-11,98,81,62,42,36,28,34,21,12,29.88,29.80,0,0,0,0.00
2012-6-12,98,82,63,46,39,30,38,23,13,29.87,29.76,0,0,0,0.00
2012-6-13,94,78,60,47,44,41,56,33,17,29.78,29.63,0,0,0,0.00
2012-6-14,96,80,63,47,43,35,50,29,16,29.69,29.62,0,0,0,0.00
2012-6-15,97,78,59,47,41,37,47,29,16,29.71,29.65,0,0,0,0.00
2012-6-16,104,88,67,50,42,34,46,23,12,29.75,29.68,0,0,0,0.00
2012-6-17,102,87,70,46,43,36,37,23,13,29.78,29.66,0,0,0,0.00
2012-6-18,91,75,59,46,40,33,59,31,15,29.81,29.70,0,0,0,0.00
2012-6-19,91,74,55,43,37,26,53,29,15,29.82,29.73,0,0,0,0.00
2012-6-20,97,81,62,42,36,27,41,21,11,29.76,29.68,0,0,0,0.00
2012-6-21,84,71,54,43,38,34,67,32,20,29.86,29.69,0,0,0,0.00
2012-6-22,78,64,50,47,42,38,77,49,30,29.89,29.79,0,0,0,0.00
2012-6-23,78,65,54,48,39,29,72,43,20,29.88,29.78,0,0,0,0.00
2012-6-24,80,65,49,43,35,26,71,37,17,29.96,29.88,0,0,0,0.00
2012-6-25,79,66,51,41,36,29,59,36,21,30.03,29.93,0,0,0,0.00
2012-6-26,81,67,51,47,38,29,75,40,20,29.99,29.80,0,0,0,0.00
2012-6-27,90,74,55,44,35,25,53,27,13,29.86,29.79,0,0,0,0.00
2012-6-28,93,75,57,42,36,29,42,26,16,29.97,29.86,0,0,0,0.00
2012-6-29,89,73,57,50,44,37,72,39,18,30.00,29.91,0,0,0,0.00
2012-6-30,91,74,57,56,49,45,81,46,21,29.94,29.82,0,0,0,0.00
2012-7-1,88,73,61,58,51,45,84,51,23,29.89,29.76,0,0,0,0.00
2012-7-2,94,74,61,55,50,42,73,47,18,29.80,29.72,0,0,0,0.00
2012-7-3,94,82,57,46,42,36,60,27,16,29.82,29.70,0,0,0,0.00
2012-7-4,97,80,63,47,42,34,52,29,13,29.77,29.69,0,0,0,0.00
2012-7-5,90,74,57,47,41,34,63,34,17,29.89,29.77,0,0,0,0.00
2012-7-6,94,76,55,47,40,32,66,31,14,29.93,29.86,0,0,0,0.00
2012-7-7,98,82,64,44,38,32,39,22,13,29.89,29.81,0,0,0,0.00
2012-7-8,100,83,64,44,38,31,37,22,13,29.89,29.83,0,0,0,0.00
2012-7-9,98,81,59,44,39,30,50,25,13,29.93,29.84,0,0,0,0.00
2012-7-10,101,82,62,44,38,27,42,22,10,29.86,29.73,0,0,0,0.00
2012-7-11,105,88,69,44,37,28,32,18,11,29.79,29.70,0,0,0,0.00
2012-7-12,106,89,70,44,38,31,29,18,11,29.73,29.67,0,0,0,0.00
2012-7-13,94,78,59,44,41,36,57,28,17,29.82,29.71,0,0,0,0.00
2012-7-14,90,73,54,51,43,38,75,40,17,29.88,29.76,0,0,0,0.00
2012-7-15,97,78,59,48,44,37,62,34,16,29.82,29.70,0,0,0,0.00
2012-7-16,84,69,56,50,44,39,72,43,23,29.85,29.71,0,0,0,0.00
2012-7-17,77,65,55,48,44,39,73,49,27,29.94,29.84,0,0,0,0.00
2012-7-18,87,71,55,48,43,38,71,41,19,29.95,29.86,0,0,0,0.00
2012-7-19,90,73,62,47,42,32,57,35,19,29.96,29.89,0,0,0,0.00
2012-7-20,92,76,57,52,43,31,72,35,15,30.00,29.88,0,0,0,0.00
2012-7-21,100,84,65,46,40,34,41,23,13,29.90,29.77,0,0,0,0.00
2012-7-22,102,87,68,47,42,36,38,22,13,29.81,29.71,0,0,0,0.00
2012-7-23,96,82,69,50,41,32,44,25,14,29.83,29.72,0,0,0,0.00
2012-7-24,94,78,59,46,39,31,55,28,14,29.88,29.80,0,0,0,0.00
2012-7-25,94,77,58,45,39,31,51,28,14,29.91,29.80,0,0,0,0.00
2012-7-26,91,74,56,46,40,36,63,32,18,29.89,29.81,0,0,0,0.00
2012-7-27,91,73,53,50,42,33,83,38,18,29.93,29.85,0,0,0,0.00
2012-7-28,92,76,58,48,42,35,59,33,17,29.95,29.87,0,0,0,0.00
2012-7-29,93,77,58,47,41,34,60,31,14,29.95,29.84,0,0,0,0.00
2012-7-30,97,81,60,47,40,32,51,26,14,29.90,29.78,0,0,0,0.00
2012-7-31,102,84,67,45,39,31,36,22,12,29.89,29.82,0,0,0,0.00
2012-8-1,100,83,64,44,37,29,35,21,13,29.96,29.85,0,0,0,0.00
2012-8-2,100,83,64,44,37,30,34,20,13,29.90,29.76,0,0,0,0.00
2012-8-3,98,80,63,44,40,34,43,26,16,29.79,29.68,0,0,0,0.00
2012-8-4,90,73,59,46,42,38,59,34,19,29.89,29.73,0,0,0,0.00
2012-8-5,92,76,59,53,45,38,77,39,18,29.98,29.86,0,0,0,0.00
2012-8-6,95,77,58,42,38,32,46,27,14,30.03,29.93,0,0,0,0.00
2012-8-7,98,80,62,43,38,33,38,23,13,29.95,29.85,0,0,0,0.00
2012-8-8,98,81,61,44,39,33,44,24,13,29.91,29.81,0,0,0,0.00
2012-8-9,102,85,66,46,39,28,40,21,12,29.85,29.73,0,0,0,0.00
2012-8-10,103,86,68,44,38,32,33,19,12,29.75,29.63,0,0,0,0.00
2012-8-11,105,88,68,45,38,31,33,19,12,29.70,29.63,0,0,0,0.00
2012-8-12,103,88,69,42,35,27,26,16,11,29.75,29.67,0,0,0,0.00
2012-8-13,105,90,71,42,35,24,22,15,12,29.76,29.65,0,0,0,0.00
2012-8-14,103,86,72,46,37,26,31,18,12,29.72,29.64,0,0,0,0.00
2012-8-15,99,84,69,45,36,25,33,18,14,29.78,29.67,0,0,0,0.00
2012-8-16,96,77,63,43,38,30,40,26,16,29.85,29.78,0,0,0,0.00
2012-8-17,98,88,64,42,39,35,36,19,13,29.89,29.78,0,0,0,0.00
2012-8-18,98,81,69,43,38,35,33,23,13,29.88,29.76,0,0,0,0.00
2012-8-19,95,79,61,44,40,37,47,27,14,29.86,29.77,0,0,0,0.00
2012-8-20,96,79,59,45,41,36,53,29,14,29.83,29.73,0,0,0,0.00
2012-8-21,94,78,62,43,38,33,39,25,14,29.82,29.73,0,0,0,0.00
2012-8-22,94,77,59,47,41,37,55,30,16,29.82,29.76,0,0,0,0.00
2012-8-23,92,77,60,47,40,30,55,29,15,29.85,29.75,0,0,0,0.00
2012-8-24,95,78,60,46,38,28,46,26,14,29.81,29.72,0,0,0,0.00
2012-8-25,90,74,60,44,38,30,45,28,17,29.77,29.68,0,0,0,0.00
2012-8-26,81,68,55,47,40,33,71,39,20,29.91,29.75,0,0,0,0.00
2012-8-27,89,72,54,46,40,29,70,36,15,29.98,29.88,0,0,0,0.00
2012-8-28,93,77,59,42,36,28,45,24,14,29.95,29.84,0,0,0,0.00
2012-8-29,94,76,58,40,34,28,40,24,12,29.86,29.72,0,0,0,0.00
2012-8-30,98,80,64,41,34,25,33,20,12,29.73,29.65,0,0,0,0.00
2012-8-31,80,66,53,48,42,33,72,44,26,29.89,29.73,0,0,0,0.00
2012-9-1,81,66,50,50,42,32,80,47,20,29.98,29.89,0,0,0,0.00
2012-9-2,90,74,57,44,38,30,60,31,15,29.92,29.82,0,0,0,0.00
2012-9-3,93,79,64,39,33,28,33,20,12,29.91,29.82,0,0,0,0.00
2012-9-4,94,79,63,40,33,27,33,20,14,29.92,29.84,0,0,0,0.00
2012-9-5,89,74,60,42,36,28,37,26,18,29.92,29.82,0,0,0,0.00
2012-9-6,90,75,64,40,34,23,38,24,15,29.93,29.85,0,0,0,0.00
2012-9-7,90,74,58,40,33,23,35,23,17,30.00,29.90,0,0,0,0.00
2012-9-8,93,77,62,41,34,28,35,22,14,29.96,29.83,0,0,0,0.00
2012-9-9,90,75,60,39,34,28,36,23,12,29.89,29.79,0,0,0,0.00
2012-9-10,89,72,55,41,35,28,52,28,15,29.86,29.73,0,0,0,0.00
2012-9-11,91,76,61,42,37,32,44,25,15,29.86,29.75,0,0,0,0.00
2012-9-12,90,76,61,42,38,34,44,27,18,29.98,29.86,0,0,0,0.00
2012-9-13,95,79,64,44,40,38,43,27,16,30.01,29.91,0,0,0,0.00
2012-9-14,94,78,63,44,41,36,46,29,17,30.00,29.90,0,0,0,0.00
2012-9-15,70,69,68,41,41,40,36,36,34,29.94,29.94,0,0,0,0.00
2012-9-24,85,74,63,36,31,28,31,21,16,29.81,29.79,0,0,1,0.00
2012-9-25,88,73,57,42,36,31,54,28,18,29.84,29.74,0,0,0,0.00
2012-9-26,88,73,59,43,38,34,50,30,18,29.83,29.74,0,0,0,0.00
2012-9-27,91,76,62,44,40,33,48,29,17,29.85,29.76,0,0,0,0.00
2012-9-28,91,76,62,42,38,31,44,27,17,29.84,29.75,0,0,0,0.00
2012-9-29,89,73,57,46,40,34,62,34,18,29.96,29.84,0,0,0,0.00
2012-9-30,92,77,60,43,39,36,49,27,17,30.01,29.90,0,0,0,0.00
2012-10-1,96,79,62,41,36,32,38,23,14,29.96,29.83,0,0,0,0.00
2012-10-2,96,84,65,40,35,29,28,18,14,29.84,29.73,0,0,0,0.00
2012-10-3,94,80,66,38,33,26,32,19,14,29.87,29.74,0,0,0,0.00
2012-10-4,78,67,57,50,44,37,72,46,28,30.03,29.87,0,0,0,0.00
2012-10-5,78,64,55,49,44,40,75,51,27,30.10,30.00,0,0,0,0.00
2012-10-6,76,64,53,49,43,37,75,48,28,30.01,29.90,0,0,0,0.00
2012-10-7,78,64,51,48,40,38,71,44,26,29.95,29.85,0,0,0,0.00
2012-10-8,75,63,52,45,39,32,69,44,24,29.97,29.92,0,0,0,0.00
2012-10-9,74,62,50,46,40,34,75,47,25,29.98,29.87,0,0,0,0.00
2012-10-10,76,65,52,45,38,32,68,39,22,29.89,29.78,0,0,0,0.00
2012-10-11,64,57,50,51,44,40,84,61,45,29.93,29.80,0,0,0,0.00
2012-10-12,66,59,55,46,43,40,69,55,38,30.17,29.92,0,0,0,0.00
2012-10-13,71,61,51,47,42,39,78,51,33,30.25,30.12,0,0,0,0.00
2012-10-14,77,66,54,50,44,41,72,47,28,30.16,30.01,0,0,0,0.00
2012-10-15,80,68,56,49,44,40,68,44,24,30.03,29.89,0,0,0,0.00
2012-10-16,84,72,59,49,45,40,63,40,24,29.93,29.80,0,0,0,0.00
2012-10-17,81,68,53,45,40,33,73,38,21,29.86,29.78,0,0,0,0.00
2012-10-18,87,73,60,46,40,34,57,34,19,29.98,29.84,0,0,0,0.00
2012-10-19,79,66,57,56,46,38,81,50,26,30.01,29.84,0,0,0,0.00
2012-10-20,75,64,53,51,44,39,80,50,33,29.84,29.71,0,0,0,0.00
2012-10-21,62,56,51,43,35,29,69,47,32,29.87,29.75,0,0,0,0.00
2012-10-22,58,52,49,49,44,36,96,75,52,29.90,29.71,0,0,0,0.79
2012-10-23,63,53,45,48,39,29,94,61,33,30.02,29.88,0,0,0,0.13
2012-10-24,63,54,45,45,39,34,79,60,37,30.16,29.99,0,0,0,0.08
2012-10-25,65,57,50,44,39,32,72,52,35,30.23,30.14,0,0,0,0.00
2012-10-26,69,56,42,42,34,28,78,47,24,30.18,30.04,0,0,0,0.00
2012-10-27,74,61,49,43,39,35,69,46,25,30.04,29.91,0,0,0,0.00
2012-10-28,79,66,54,45,41,38,62,42,23,29.97,29.90,0,0,0,0.00
2012-10-29,77,65,54,45,41,37,66,44,25,30.06,29.96,0,0,0,0.00
2012-10-30,78,64,54,48,41,36,70,46,23,30.03,29.91,0,0,0,0.00
2012-10-31,64,58,52,54,49,45,97,73,53,29.98,29.90,0,0,0,0.04
2012-11-1,69,60,54,58,52,48,96,78,49,30.00,29.95,0,0,0,0.37
2012-11-2,68,58,49,53,47,41,94,69,40,30.04,29.98,0,0,0,0.00
2012-11-3,69,58,48,52,45,39,94,64,36,30.10,30.02,0,0,0,0.00
2012-11-4,74,62,52,52,46,42,87,60,33,30.18,30.10,0,0,0,0.00
2012-11-5,76,65,53,53,47,43,88,56,31,30.14,30.02,0,0,0,0.00
2012-11-6,78,65,53,48,44,39,79,49,27,30.06,29.96,0,0,0,0.00
2012-11-7,75,63,54,49,42,37,78,50,28,29.98,29.82,0,0,0,0.00
2012-11-8,63,51,42,48,40,28,87,68,28,29.90,29.80,0,0,0,0.13
2012-11-9,56,46,40,41,34,29,90,63,38,29.93,29.86,0,0,0,0.17
2012-11-10,56,47,42,35,30,24,72,54,32,30.22,29.92,0,0,0,0.00
2012-11-11,57,47,37,28,24,19,61,42,27,30.35,30.22,0,0,0,0.00
2012-11-12,60,49,39,34,29,26,72,46,28,30.36,30.23,0,0,0,0.00
2012-11-13,65,52,41,37,33,30,79,51,29,30.24,30.06,0,0,0,0.00
2012-11-14,67,54,44,44,37,33,80,55,32,30.11,29.99,0,0,0,0.00
2012-11-15,69,54,44,41,35,31,75,51,27,30.01,29.92,0,0,0,0.00
2012-11-16,63,56,49,51,40,30,84,55,39,29.99,29.86,0,0,0,0.04
2012-11-17,59,57,54,59,52,45,100,83,61,29.95,29.81,0,0,0,0.66
2012-11-18,60,55,51,53,45,36,100,73,42,30.15,29.95,0,0,0,0.41
2012-11-19,68,58,51,46,40,35,81,54,31,30.20,30.12,0,0,0,0.00
2012-11-20,67,60,54,50,41,37,79,50,36,30.13,29.99,0,0,0,0.04
2012-11-21,61,54,48,57,51,46,100,87,63,30.15,30.01,0,0,0,0.33
2012-11-22,62,51,42,49,42,38,99,76,45,30.20,30.13,0,0,0,0.00
2012-11-23,66,53,44,52,43,38,99,72,36,30.24,30.14,0,0,0,0.00
2012-11-24,66,53,44,50,42,37,97,70,36,30.17,29.99,0,0,0,0.00
2012-11-25,64,52,42,46,39,33,92,66,33,29.99,29.89,0,0,0,0.00
2012-11-26,65,53,43,44,40,37,86,64,39,30.04,29.94,0,0,0,0.00
2012-11-27,63,52,43,46,40,35,87,67,42,30.08,29.97,0,0,0,0.00
2012-11-28,55,53,51,55,49,44,100,87,66,30.03,29.85,0,0,0,0.95
2012-11-29,63,58,52,53,49,41,99,74,44,30.05,29.83,0,0,0,0.25
2012-11-30,58,57,56,58,56,53,100,97,82,29.99,29.74,0,0,0,2.49
2012-12-1,60,58,56,60,56,52,100,94,81,30.01,29.84,0,0,0,0.71
2012-12-2,60,55,47,58,53,46,100,92,70,30.08,29.69,0,0,0,1.24
2012-12-3,63,52,43,52,47,43,100,83,52,30.17,30.05,0,0,0,0.00
2012-12-4,61,57,53,55,52,49,96,85,71,30.21,30.10,0,0,0,0.00
2012-12-5,59,55,51,59,55,49,100,99,91,30.15,30.07,0,0,0,0.87
2012-12-6,55,54,48,55,53,47,100,99,86,30.09,30.02,0,0,0,0.04
2012-12-7,57,48,41,53,46,41,100,94,73,30.10,30.03,0,0,0,0.00
2012-12-8,57,46,39,47,42,37,100,88,50,30.08,30.00,0,0,0,0.00
2012-12-9,59,47,40,50,44,39,100,88,60,30.18,30.05,0,0,0,0.00
2012-12-10,60,50,41,54,45,41,100,85,53,30.21,30.08,0,0,0,0.00
2012-12-11,62,50,43,53,46,42,100,86,50,30.07,29.78,0,0,0,0.13
2012-12-12,53,47,39,48,43,37,100,85,59,29.86,29.77,0,0,0,0.04
2012-12-13,50,43,36,39,35,31,96,76,52,29.89,29.80,0,0,0,0.00
2012-12-14,47,37,35,38,34,33,96,89,68,29.85,29.79,0,0,0,0.00
2012-12-17,60,51,46,58,49,45,100,94,86,30.01,29.92,10,0,18,0.37
2012-12-18,48,42,33,46,30,-100,100,67,32,30.12,29.90,0,0,0,0.00
2012-12-19,50,40,29,28,23,15,70,50,32,30.28,30.11,0,0,0,0.00
2012-12-20,57,46,36,26,22,-100,58,39,26,30.21,29.98,0,0,0,0.00
2012-12-21,51,46,41,38,24,16,75,43,28,29.98,29.86,0,0,0,0.13
2012-12-23,50,44,47,49,35,-100,100,88,83,29.95,29.94,0,0,0,2.07
2012-12-24,53,47,40,49,44,40,100,92,68,30.16,29.94,0,0,0,0.00
2012-12-25,49,44,38,46,42,38,100,93,67,30.12,29.77,0,0,0,0.91
2012-12-26,46,45,44,46,45,44,100,100,100,29.91,29.80,0,0,0,0.20